Share
Active Advisory: Winter Storm Warning Active Notice: Record Report

Current weather conditions updated 7 minutes ago

Light Snow
Light Snow
28.8 °F
Feels Like 29 °F
N
0.0
Wind Variable Wind from ESE
Gusts 0.0 mph
Sunrise 7:05 AM
Sunset 8:47 PM
Moon Waning Gibbous

Today is forecast to be nearly the same temperature as yesterday. Snow.

Pressure 30.12 in
Visibility 2.5 miles
Clouds Overcast 1100 ft
Windchill 29 °F
Dew Point 28 °F
Humidity 95%
Rainfall 0.00 in
Snow Depth Not available.
UV 0 out of 16
Pollen 1.00 out of 12
Air Quality Not available.
Flu Activity Sporadic
METAR KLNL 170615Z AUTO 13010G16KT 2 1/2SM -SN OVC011 M01/M02 A3012 RMK AO2 T10111022

More Conditions Fewer Conditions

Pressure 30.12 in
Visibility 2.5 miles
Clouds Overcast 1100 ft
Windchill 29 °F
Dew Point 28 °F
Humidity 95%
Rainfall 0.00 in
Snow Depth Not available.
UV 0 out of 16
Pollen 1.00 out of 12
Air Quality Not available.
Flu Activity Sporadic
METAR KLNL 170615Z AUTO 13010G16KT 2 1/2SM -SN OVC011 M01/M02 A3012 RMK AO2 T10111022

More Conditions Fewer Conditions

10-Day Forecast

Almanac

Astronomy

Apr. 17, 2014 Rise Set
Actual Time 7:05 AM EDT 8:47 PM EDT
Civil Twilight 6:33 AM EDT 9:19 PM EDT
Nautical Twilight 5:54 AM EDT 9:58 PM EDT
Astronomical Twilight 5:12 AM EDT 10:41 PM EDT
Moon 11:41 PM EDT 8:30 AM EDT
Length of Visible Light 14h 46m
Length of Day
13h 42m
Tomorrow will be 3m 11s longer.
Waning Gibbous, 96% of the Moon is Illuminated
Today
Waning Gibbous
Apr 22
Last Quarter
Apr 29
New
May 6
First Quarter
May 14
Full

Today's Extremes

State Highs State Lows

Community

  • Sunset over the Bay
    Sunset over the Bay
  • symphony in blue....
    symphony in blue....
  • Dawn Surprise
    Dawn Surprise
  • Yucca delight
    Yucca delight
  • Sunset inside of the Ocean
    Sunset inside of the Ocean

WunderPhotos

Upload Photos

1,701,875 photos uploaded!

WunderBlogs® & News

Nearby

Snow Depth

Station Depth Elevation
No new snow has been reported.

Coastal Water Temperatures

Place Temperature
No Stations Reporting

Earthquake Activity

City Distance Mag. Time & Date
No recent earthquake activity has been reported nearby.
Minimum magnitude displayed is 2.5.

Nearby Weather Stations

Station Location Temp. Windchill Dew Point Humidity Wind Precip. Elev Updated Type
Mountain View Lodges, Silver City, MI / , Ontonagon, MI 28.8 °F 29 °F 28 °F 95% ESE  at  0.0 mph 0.00 in / hr 587 ft 2:20 AM EDT Normal
RAWS PELKIE MI, Pelkie, MI 28 °F 23 °F 27 °F 95% ENE  at  4 mph 0.00 in / hr 759 ft 1:13 AM EDT MADIS

Show More Stations Show Fewer Stations

What do you think?

We're not finished. Please let us know what you like, what you don't like, and what you are still missing.